»·PEaware :: SWA5175 KLAX-KPHX

SWA5175 :: KLAX-KPHX

FLIGHT INFORMATION

Flight Status: Arrived
Operator:
Southwest Airlines
More flights by this operator :: More flights under this callsign
Pilot: Nehseem A. (13724)
Aircraft: BOEING 737-200
(B732)
More flights by this aircraft type
Origin: KLAX Los Angeles Intl
United States
Destination: KPHX Phoenix Sky Harbor Intl
United States
More flights between these airports :: More routes between these airports
Route: LAXX1 TRM J169 BLH BLH5
File this flight plan on PilotEdge
Remarks:
Altitude:
(Current/Filed)
29,000ft
Speed:
(Current/Filed)
441kts
Departed: 11-Apr-18 10:57 AM
Arrived: 11-Apr-18 12:06 PM
Distance/Time
Traveled:
321nm/1:09
Distance/Time
To Go:
Arrived

Flight Plot

Page will automatically refresh every two minutes.

Flight plan parsing failed; only flown route is shown


Map Options




Map Legend


Flown Route
Filed Route
Departure Airport
Arrival Airport
Navaid (VOR, NDB)
Fix

Horizontal Profiles

Position Reports

Time Latitude Longitude Heading Altitude Ground
Speed
11-Apr-18 10:25 33.945209 -118.411274 97 134ft 0kts
11-Apr-18 10:26 33.945209 -118.411273 97 134ft 0kts
11-Apr-18 10:27 33.945209 -118.411273 97 134ft 0kts
11-Apr-18 10:28 33.945209 -118.411273 97 134ft 0kts
11-Apr-18 10:29 33.945209 -118.411273 97 134ft 0kts
11-Apr-18 10:30 33.945209 -118.411273 97 134ft 0kts
11-Apr-18 10:31 33.945209 -118.411273 97 134ft 0kts
11-Apr-18 10:32 33.945209 -118.411273 97 134ft 0kts
11-Apr-18 10:33 33.945209 -118.411273 97 134ft 0kts
11-Apr-18 10:34 33.945209 -118.411273 97 134ft 0kts
11-Apr-18 10:35 33.945209 -118.411273 97 134ft 0kts
11-Apr-18 10:36 33.945209 -118.411273 97 134ft 0kts
11-Apr-18 10:37 33.945209 -118.411273 97 134ft 0kts
11-Apr-18 10:38 33.945209 -118.411273 97 134ft 0kts
11-Apr-18 10:39 33.945209 -118.411273 97 134ft 0kts
11-Apr-18 10:40 33.945209 -118.411273 97 134ft 0kts
11-Apr-18 10:41 33.945209 -118.411273 97 134ft 0kts
11-Apr-18 10:42 33.945209 -118.411273 97 134ft 0kts
11-Apr-18 10:43 33.945209 -118.411273 97 134ft 0kts
11-Apr-18 10:44 33.945210 -118.411287 97 134ft 1kts
11-Apr-18 10:45 33.945031 -118.411835 23 134ft 2kts
11-Apr-18 10:46 33.944842 -118.411870 355 134ft 0kts
11-Apr-18 10:47 33.944842 -118.411870 355 134ft 0kts
11-Apr-18 10:48 33.944842 -118.411870 355 134ft 0kts
11-Apr-18 10:49 33.945062 -118.412220 286 134ft 11kts
11-Apr-18 10:50 33.946202 -118.412725 352 134ft 0kts
11-Apr-18 10:51 33.946325 -118.412746 352 134ft 5kts
11-Apr-18 10:52 33.947467 -118.409432 83 134ft 16kts
11-Apr-18 10:53 33.948072 -118.403518 82 134ft 24kts
11-Apr-18 10:54 33.949113 -118.400781 300 134ft 9kts
11-Apr-18 10:55 33.949241 -118.401546 334 134ft 0kts
11-Apr-18 10:56 33.949799 -118.405491 263 134ft 59kts
11-Apr-18 10:57 33.944663 -118.456668 264 1335ft 195kts
11-Apr-18 10:58 33.933648 -118.530790 238 4046ft 259kts
11-Apr-18 10:59 33.868258 -118.563045 190 6986ft 293kts
11-Apr-18 11:00 33.788228 -118.564747 161 10000ft 312kts
11-Apr-18 11:01 33.708376 -118.521430 157 12561ft 335kts
11-Apr-18 11:02 33.650925 -118.431588 119 15017ft 369kts
11-Apr-18 11:03 33.610816 -118.317918 99 17089ft 397kts
11-Apr-18 11:04 33.637026 -118.190977 44 16798ft 394kts
11-Apr-18 11:05 33.711868 -118.108873 36 17547ft 383kts
11-Apr-18 11:06 33.780427 -118.020133 63 19556ft 397kts
11-Apr-18 11:07 33.775935 -117.898843 109 21862ft 385kts
11-Apr-18 11:08 33.763934 -117.770431 94 23439ft 403kts
11-Apr-18 11:09 33.754473 -117.631411 99 24323ft 429kts
11-Apr-18 11:10 33.741375 -117.490536 96 25964ft 431kts
11-Apr-18 11:11 33.730121 -117.350041 96 27699ft 423kts
11-Apr-18 11:12 33.718677 -117.211214 97 28688ft 433kts
11-Apr-18 11:13 33.707303 -117.069576 97 29054ft 456kts
11-Apr-18 11:14 33.694913 -116.916223 97 28986ft 483kts
11-Apr-18 11:15 33.666262 -116.761645 107 28950ft 474kts
11-Apr-18 11:16 33.662989 -116.604001 94 28961ft 476kts
11-Apr-18 11:17 33.652403 -116.445525 97 28948ft 488kts
11-Apr-18 11:18 33.639273 -116.290330 98 28917ft 481kts
11-Apr-18 11:19 33.626037 -116.131623 93 28912ft 481kts
11-Apr-18 11:20 33.624730 -115.971319 92 28920ft 487kts
11-Apr-18 11:21 33.622339 -115.808166 92 28921ft 492kts
11-Apr-18 11:22 33.619421 -115.643399 92 28922ft 496kts
11-Apr-18 11:23 33.616289 -115.479603 92 28921ft 491kts
11-Apr-18 11:24 33.611971 -115.321847 102 28910ft 484kts
11-Apr-18 11:25 33.562030 -115.180851 97 28958ft 477kts
11-Apr-18 11:26 33.597520 -115.029183 77 28942ft 481kts
11-Apr-18 11:27 33.603059 -114.869646 97 28953ft 486kts
11-Apr-18 11:28 33.592016 -114.706266 100 28930ft 499kts
11-Apr-18 11:29 33.577380 -114.548002 99 27883ft 459kts
11-Apr-18 11:30 33.566753 -114.396942 99 26855ft 459kts
11-Apr-18 11:31 33.554313 -114.249576 99 25459ft 460kts
11-Apr-18 11:32 33.540672 -114.101316 100 23343ft 445kts
11-Apr-18 11:33 33.523255 -113.958530 113 22765ft 441kts
11-Apr-18 11:34 33.471616 -113.829135 116 22067ft 437kts
11-Apr-18 11:35 33.431205 -113.695527 112 20547ft 412kts
11-Apr-18 11:36 33.389094 -113.571444 121 18921ft 396kts
11-Apr-18 11:37 33.337706 -113.457388 124 17544ft 387kts
11-Apr-18 11:38 33.283474 -113.350473 120 16450ft 370kts
11-Apr-18 11:39 33.249560 -113.239709 109 15177ft 368kts
11-Apr-18 11:40 33.241335 -113.119076 86 14033ft 362kts
11-Apr-18 11:41 33.258689 -113.001740 78 12302ft 352kts
11-Apr-18 11:42 33.278231 -112.894227 79 12198ft 324kts
11-Apr-18 11:43 33.291590 -112.788412 84 11874ft 319kts
11-Apr-18 11:44 33.299112 -112.683357 86 12068ft 323kts
11-Apr-18 11:45 33.302630 -112.579389 94 12077ft 308kts
11-Apr-18 11:46 33.298889 -112.473271 88 12010ft 317kts
11-Apr-18 11:47 33.314284 -112.372949 57 11915ft 316kts
11-Apr-18 11:48 33.384171 -112.332213 353 10532ft 296kts
11-Apr-18 11:49 33.460147 -112.315509 30 9214ft 295kts
11-Apr-18 11:50 33.497451 -112.237570 106 7968ft 290kts
11-Apr-18 11:51 33.454819 -112.164882 134 6977ft 274kts
11-Apr-18 11:52 33.390156 -112.130845 169 5898ft 260kts
11-Apr-18 11:53 33.322647 -112.116864 172 4994ft 247kts
11-Apr-18 11:54 33.268444 -112.147343 265 5975ft 243kts
11-Apr-18 11:55 33.271666 -112.227307 302 5996ft 249kts
11-Apr-18 11:56 33.306760 -112.297023 299 5908ft 246kts
11-Apr-18 11:57 33.342372 -112.365678 322 5447ft 246kts
11-Apr-18 11:58 33.401846 -112.364840 57 5060ft 234kts
11-Apr-18 11:59 33.425241 -112.297119 82 4669ft 226kts
11-Apr-18 12:00 33.428754 -112.224655 88 4100ft 210kts
11-Apr-18 12:01 33.428126 -112.160012 93 3337ft 170kts
11-Apr-18 12:02 33.428623 -112.110256 89 2473ft 150kts
11-Apr-18 12:03 33.428929 -112.062026 90 1759ft 148kts
11-Apr-18 12:04 33.428833 -112.016167 90 1143ft 125kts
11-Apr-18 12:05 33.429816 -112.001885 306 1143ft 0kts
11-Apr-18 12:06 33.429916 -112.001814 82 1143ft 5kts
11-Apr-18 12:07 33.432097 -112.000003 293 1143ft 6kts
11-Apr-18 12:08 33.433677 -111.999758 36 1143ft 0kts
11-Apr-18 12:09 33.433677 -111.999758 36 1143ft 0kts

Navigation Log

Ident Type
Flight plan parsing failed, navigation log unavailable